Time;durP1;ratioP1;P1;durP2;ratioP2;P2;SDS_P1;SDS_P2;PMS_P1;PMS_P2;Temp;Humidity;BMP_temperature;BMP_pressure;BME280_temperature;BME280_humidity;BME280_pressure;Samples;Min_cycle;Max_cycle;Signal;HPM_P1;HPM_P2
2022/05/22 00:00:10;;;;;;;4.00;3.60;;;16.40;99.90;;;;;;5073203;28;20496;-57
2022/05/22 00:02:37;;;;;;;6.40;3.50;;;16.50;99.90;;;;;;5073198;28;20809;-56
2022/05/22 00:05:05;;;;;;;4.00;3.60;;;16.40;99.90;;;;;;5073184;28;20454;-57
2022/05/22 00:07:32;;;;;;;4.33;3.33;;;16.50;99.90;;;;;;5073014;28;20938;-57
2022/05/22 00:10:01;;;;;;;4.13;3.67;;;16.50;99.90;;;;;;5072985;28;20970;-56
2022/05/22 00:12:28;;;;;;;4.20;3.40;;;16.60;99.90;;;;;;5072854;28;20511;-57
2022/05/22 00:14:56;;;;;;;8.87;4.33;;;16.40;99.90;;;;;;5073219;28;20449;-57
2022/05/22 00:17:23;;;;;;;7.30;3.70;;;16.10;99.90;;;;;;5073649;28;20451;-57
2022/05/22 00:19:50;;;;;;;4.40;3.47;;;16.30;99.90;;;;;;5077103;28;20464;-57
2022/05/22 00:22:18;;;;;;;4.50;4.10;;;16.30;99.90;;;;;;5077475;28;20441;-56
2022/05/22 00:24:45;;;;;;;4.67;3.80;;;16.10;99.90;;;;;;5077303;28;20459;-57
2022/05/22 00:27:15;;;;;;;4.57;3.90;;;15.90;99.90;;;;;;5077261;28;20444;-57
2022/05/22 00:29:42;;;;;;;6.90;5.10;;;15.90;99.90;;;;;;5077399;28;20490;-56
2022/05/22 00:32:10;;;;;;;7.53;3.70;;;16.00;99.90;;;;;;5076745;28;20476;-57
2022/05/22 00:34:38;;;;;;;4.00;3.60;;;16.10;99.90;;;;;;5077355;28;20436;-57
2022/05/22 00:37:06;;;;;;;4.67;4.27;;;16.20;99.90;;;;;;5077091;28;20448;-56
2022/05/22 00:39:34;;;;;;;4.27;3.87;;;16.20;99.90;;;;;;5076834;28;20473;-56
2022/05/22 00:42:01;;;;;;;3.93;3.50;;;16.10;99.90;;;;;;5076543;28;20472;-56
2022/05/22 00:44:30;;;;;;;6.53;4.50;;;15.90;99.90;;;;;;5076761;28;20452;-57
2022/05/22 00:46:57;;;;;;;5.57;4.33;;;16.00;99.90;;;;;;5076918;28;20452;-57
2022/05/22 00:49:29;;;;;;;5.33;4.03;;;16.10;99.90;;;;;;5076711;28;20464;-57
2022/05/22 00:52:02;;;;;;;5.83;5.20;;;16.10;99.90;;;;;;5076499;28;20559;-57
2022/05/22 00:54:32;;;;;;;4.60;4.20;;;16.20;99.90;;;;;;5076825;28;20452;-58
2022/05/22 00:57:04;;;;;;;4.80;3.50;;;16.20;99.90;;;;;;5076605;28;20432;-57
2022/05/22 00:59:36;;;;;;;4.93;4.17;;;16.20;99.90;;;;;;5076482;28;20475;-57
2022/05/22 01:02:04;;;;;;;4.73;4.10;;;16.10;99.90;;;;;;5076756;28;20427;-57
2022/05/22 01:04:34;;;;;;;4.80;3.77;;;16.20;99.90;;;;;;5076747;28;20522;-57
2022/05/22 01:07:02;;;;;;;7.70;5.07;;;16.20;99.90;;;;;;5076387;28;20451;-57
2022/05/22 01:09:30;;;;;;;5.57;4.27;;;16.10;99.90;;;;;;5076353;28;20463;-57
2022/05/22 01:12:03;;;;;;;5.40;3.80;;;16.20;99.90;;;;;;5076105;28;20558;-57
2022/05/22 01:14:33;;;;;;;5.73;3.60;;;15.90;99.90;;;;;;5076423;28;20474;-58
2022/05/22 01:17:02;;;;;;;6.33;5.47;;;15.70;99.90;;;;;;5076553;28;20529;-57
2022/05/22 01:19:29;;;;;;;5.50;5.00;;;15.80;99.90;;;;;;5075943;28;20468;-57
2022/05/22 01:21:59;;;;;;;4.60;4.20;;;15.90;99.90;;;;;;5076334;28;20873;-57
2022/05/22 01:24:27;;;;;;;6.03;4.80;;;16.00;99.90;;;;;;5076319;28;20814;-57
2022/05/22 01:26:59;;;;;;;4.90;4.47;;;15.90;99.90;;;;;;5076047;28;20615;-57
2022/05/22 01:29:26;;;;;;;4.70;4.00;;;15.80;99.90;;;;;;5074735;28;20820;-57
2022/05/22 01:31:53;;;;;;;5.13;4.63;;;15.70;99.90;;;;;;5076056;28;20487;-57
2022/05/22 01:34:21;;;;;;;5.80;5.30;;;15.60;99.90;;;;;;5076009;28;20547;-58
2022/05/22 01:36:48;;;;;;;6.47;4.40;;;15.60;99.90;;;;;;5076171;28;20445;-57
2022/05/22 01:39:17;;;;;;;6.57;5.57;;;15.80;99.90;;;;;;5075693;28;20448;-57
2022/05/22 01:41:44;;;;;;;4.90;4.50;;;15.80;99.90;;;;;;5075716;28;20443;-57
2022/05/22 01:44:12;;;;;;;6.03;5.43;;;15.70;99.90;;;;;;5075968;28;20847;-57
2022/05/22 01:46:39;;;;;;;6.30;5.63;;;15.70;99.90;;;;;;5075857;28;20527;-57
2022/05/22 01:49:07;;;;;;;6.80;5.03;;;15.60;99.90;;;;;;5075481;28;20891;-57
2022/05/22 01:51:37;;;;;;;10.53;5.10;;;15.60;99.90;;;;;;5075403;28;20483;-57
2022/05/22 01:54:05;;;;;;;4.50;4.10;;;15.60;99.90;;;;;;5075604;28;20535;-57
2022/05/22 01:56:35;;;;;;;8.20;4.87;;;15.40;99.90;;;;;;5075609;28;20510;-57
2022/05/22 01:59:03;;;;;;;7.70;5.43;;;15.20;99.90;;;;;;5075512;28;20456;-57
2022/05/22 02:01:31;;;;;;;4.93;4.37;;;15.10;99.90;;;;;;5075770;28;20460;-57
2022/05/22 02:03:58;;;;;;;7.33;3.70;;;15.10;99.90;;;;;;5075613;28;20505;-57
2022/05/22 02:06:25;;;;;;;6.23;5.67;;;15.30;99.90;;;;;;5075549;28;20452;-57
2022/05/22 02:08:52;;;;;;;5.77;5.00;;;15.40;99.90;;;;;;5075454;28;20504;-57
2022/05/22 02:11:19;;;;;;;5.20;4.70;;;15.40;99.90;;;;;;5075317;28;20480;-57
2022/05/22 02:13:48;;;;;;;5.53;4.40;;;15.40;99.90;;;;;;5075453;28;20453;-57
2022/05/22 02:16:16;;;;;;;6.00;4.80;;;15.50;99.90;;;;;;5075260;28;20448;-57
2022/05/22 02:18:44;;;;;;;6.70;5.10;;;15.40;99.90;;;;;;5074952;28;20475;-57
2022/05/22 02:21:11;;;;;;;4.60;4.20;;;15.30;99.90;;;;;;5075191;28;20854;-57
2022/05/22 02:23:39;;;;;;;8.23;5.07;;;15.40;99.90;;;;;;5074921;28;20480;-57
2022/05/22 02:26:10;;;;;;;3.90;3.50;;;15.40;99.90;;;;;;5075096;28;20456;-57
2022/05/22 02:28:39;;;;;;;4.03;3.70;;;15.40;99.90;;;;;;5074952;28;20522;-57
2022/05/22 02:31:09;;;;;;;4.87;4.37;;;15.50;99.90;;;;;;5074879;28;20452;-57
2022/05/22 02:33:36;;;;;;;6.93;3.80;;;15.10;99.90;;;;;;5074931;28;20484;-58
2022/05/22 02:36:08;;;;;;;6.40;4.33;;;14.90;99.90;;;;;;5074554;28;20947;-57
2022/05/22 02:38:36;;;;;;;4.20;3.90;;;14.90;99.90;;;;;;5074578;28;20467;-57
2022/05/22 02:41:10;;;;;;;4.23;3.60;;;15.00;99.90;;;;;;5074317;28;20452;-57
2022/05/22 02:43:37;;;;;;;4.93;4.10;;;15.00;99.90;;;;;;5074440;28;20617;-57
2022/05/22 02:46:10;;;;;;;4.80;3.83;;;15.10;99.90;;;;;;5074343;28;20444;-57
2022/05/22 02:48:37;;;;;;;16.30;4.40;;;15.20;99.90;;;;;;5074268;28;20982;-57
2022/05/22 02:51:05;;;;;;;4.77;4.23;;;15.20;99.90;;;;;;5074248;28;21002;-57
2022/05/22 02:53:32;;;;;;;5.73;4.23;;;15.30;99.90;;;;;;5074162;28;20479;-57
2022/05/22 02:56:08;;;;;;;4.60;4.20;;;15.30;99.90;;;;;;5074522;28;20452;-57
2022/05/22 02:58:35;;;;;;;4.50;4.10;;;15.30;99.90;;;;;;5074149;28;20468;-57
2022/05/22 03:01:02;;;;;;;3.80;3.40;;;15.40;99.90;;;;;;5074414;28;20806;-57
2022/05/22 03:03:31;;;;;;;4.63;4.23;;;15.40;99.90;;;;;;5074014;28;20440;-57
2022/05/22 03:08:43;;;;;;;4.27;3.87;;;15.20;99.90;;;;;;5073976;28;20452;-58
2022/05/22 03:11:10;;;;;;;5.30;4.80;;;15.20;99.90;;;;;;5073947;28;20950;-57
2022/05/22 03:13:38;;;;;;;5.77;4.40;;;15.20;99.90;;;;;;5074057;28;20484;-57
2022/05/22 03:16:05;;;;;;;5.47;4.30;;;15.10;99.90;;;;;;5073804;28;20798;-57
2022/05/22 03:18:34;;;;;;;7.90;4.70;;;15.20;99.90;;;;;;5073735;28;20464;-57
2022/05/22 03:21:01;;;;;;;5.10;4.03;;;15.20;99.90;;;;;;5073832;28;20444;-57
2022/05/22 03:23:28;;;;;;;7.43;4.00;;;15.10;99.90;;;;;;5074086;28;20819;-58
2022/05/22 03:25:55;;;;;;;4.20;3.80;;;15.10;99.90;;;;;;5073893;28;20950;-57
2022/05/22 03:28:23;;;;;;;7.63;4.63;;;15.00;99.90;;;;;;5073515;28;20453;-57
2022/05/22 03:30:51;;;;;;;4.67;4.27;;;14.80;99.90;;;;;;5073938;28;20448;-56
2022/05/22 03:33:18;;;;;;;4.23;3.83;;;14.60;99.90;;;;;;5073511;28;20473;-57
2022/05/22 03:35:47;;;;;;;4.23;3.83;;;14.70;99.90;;;;;;5073984;28;20451;-57
2022/05/22 03:38:14;;;;;;;5.20;4.53;;;14.80;99.90;;;;;;5073412;28;21065;-57
2022/05/22 03:40:46;;;;;;;5.00;4.30;;;14.80;99.90;;;;;;5073549;28;20804;-57
2022/05/22 03:43:14;;;;;;;5.43;4.70;;;14.90;99.90;;;;;;5073358;28;20475;-57
2022/05/22 03:45:42;;;;;;;4.23;3.83;;;15.00;99.90;;;;;;5073993;28;20440;-57
2022/05/22 03:48:09;;;;;;;5.07;4.00;;;14.80;99.90;;;;;;5073599;28;20523;-57
2022/05/22 03:50:41;;;;;;;7.63;4.17;;;14.80;99.90;;;;;;5073442;28;20955;-57
2022/05/22 03:53:10;;;;;;;4.80;4.00;;;14.70;99.90;;;;;;5072776;28;20506;-57
2022/05/22 03:55:37;;;;;;;4.47;4.07;;;14.70;99.90;;;;;;5073127;28;20453;-57
2022/05/22 03:58:04;;;;;;;7.23;4.10;;;14.60;99.90;;;;;;5073639;28;20444;-57
2022/05/22 04:00:31;;;;;;;4.77;4.37;;;14.80;99.90;;;;;;5073185;28;20460;-57
2022/05/22 04:02:59;;;;;;;5.07;4.10;;;14.90;99.90;;;;;;5073278;28;20792;-56
2022/05/22 04:05:26;;;;;;;6.50;3.67;;;15.00;99.90;;;;;;5073292;28;20444;-57
2022/05/22 04:07:53;;;;;;;4.03;3.53;;;15.10;99.90;;;;;;5073359;28;20455;-57
2022/05/22 04:10:22;;;;;;;4.37;3.57;;;15.00;99.90;;;;;;5073570;28;20459;-58
2022/05/22 04:12:49;;;;;;;5.90;3.93;;;15.00;99.90;;;;;;5073392;28;20546;-57
2022/05/22 04:15:19;;;;;;;4.27;3.90;;;14.90;99.90;;;;;;5073378;28;20465;-57
2022/05/22 04:17:46;;;;;;;8.37;4.17;;;14.80;99.90;;;;;;5073115;28;20451;-57
2022/05/22 04:20:14;;;;;;;5.70;3.70;;;14.90;99.90;;;;;;5073345;28;20491;-57
2022/05/22 04:25:24;;;;;;;6.63;3.53;;;15.00;99.90;;;;;;5073143;28;20450;-57
2022/05/22 04:27:51;;;;;;;4.57;3.87;;;15.00;99.90;;;;;;5072972;28;20755;-56
2022/05/22 04:30:20;;;;;;;3.83;3.53;;;15.00;99.90;;;;;;5072853;28;20448;-57
2022/05/22 04:32:49;;;;;;;4.67;3.33;;;14.90;99.90;;;;;;5073256;28;20484;-57
2022/05/22 04:35:18;;;;;;;3.53;3.23;;;14.80;99.90;;;;;;5073509;28;20780;-57
2022/05/22 04:37:45;;;;;;;4.23;3.83;;;14.70;99.90;;;;;;5073135;28;20444;-57
2022/05/22 04:40:13;;;;;;;5.60;3.87;;;14.80;99.90;;;;;;5073203;28;20468;-57
2022/05/22 04:42:42;;;;;;;5.20;3.97;;;14.90;99.90;;;;;;5072777;28;20498;-58
2022/05/22 04:45:11;;;;;;;4.53;4.13;;;15.00;99.90;;;;;;5073154;28;20476;-57
2022/05/22 04:47:40;;;;;;;9.47;4.70;;;15.10;99.90;;;;;;5073080;28;20470;-57
2022/05/22 04:50:08;;;;;;;5.67;4.07;;;15.00;99.90;;;;;;5072774;28;20513;-57
2022/05/22 04:52:37;;;;;;;5.37;3.57;;;15.00;99.90;;;;;;5072920;28;20929;-57
2022/05/22 04:55:05;;;;;;;5.07;4.17;;;15.10;99.90;;;;;;5072793;28;20455;-57
2022/05/22 04:57:32;;;;;;;3.83;3.37;;;15.10;99.90;;;;;;5072866;28;20456;-57
2022/05/22 05:00:01;;;;;;;4.67;4.10;;;15.20;99.90;;;;;;5072477;28;20472;-57
2022/05/22 05:02:28;;;;;;;6.00;3.70;;;15.10;99.90;;;;;;5073078;28;20449;-57
2022/05/22 05:04:56;;;;;;;4.33;4.03;;;15.10;99.90;;;;;;5075775;28;20455;-57
2022/05/22 05:07:23;;;;;;;4.80;4.40;;;15.30;99.90;;;;;;5076376;28;20425;-57
2022/05/22 05:09:51;;;;;;;6.73;3.77;;;15.40;99.90;;;;;;5076524;28;20555;-57
2022/05/22 05:12:19;;;;;;;6.20;4.00;;;15.30;99.90;;;;;;5076683;28;20444;-57
2022/05/22 05:14:46;;;;;;;4.33;3.73;;;15.30;99.90;;;;;;5076184;28;20931;-57
2022/05/22 05:17:17;;;;;;;3.90;3.50;;;15.30;99.90;;;;;;5076487;28;20471;-57
2022/05/22 05:19:44;;;;;;;4.10;3.60;;;15.50;99.90;;;;;;5076014;28;21052;-57
2022/05/22 05:22:12;;;;;;;4.70;4.10;;;15.60;99.90;;;;;;5076437;28;20444;-57
2022/05/22 05:24:40;;;;;;;4.37;3.97;;;15.70;99.90;;;;;;5076313;28;20452;-57
2022/05/22 05:27:07;;;;;;;4.73;4.30;;;15.60;99.90;;;;;;5076232;28;20444;-57
2022/05/22 05:29:34;;;;;;;5.17;4.17;;;15.60;99.90;;;;;;5076042;28;20472;-57
2022/05/22 05:32:01;;;;;;;4.77;4.00;;;15.60;99.90;;;;;;5075954;28;20796;-57
2022/05/22 05:34:30;;;;;;;4.97;4.07;;;15.70;99.90;;;;;;5076088;28;20480;-57
2022/05/22 05:36:58;;;;;;;5.20;3.80;;;15.60;99.90;;;;;;5076234;28;20786;-56
2022/05/22 05:39:27;;;;;;;4.87;4.47;;;15.60;99.90;;;;;;5075920;28;20823;-57
2022/05/22 05:41:55;;;;;;;4.70;4.30;;;15.60;99.90;;;;;;5075881;28;20480;-57
2022/05/22 05:44:23;;;;;;;4.70;4.20;;;15.80;99.90;;;;;;5076074;28;20432;-57
2022/05/22 05:46:50;;;;;;;5.10;4.60;;;15.90;99.90;;;;;;5075994;28;20444;-56
2022/05/22 05:49:17;;;;;;;4.93;4.43;;;15.90;99.90;;;;;;5075641;28;20985;-57
2022/05/22 05:51:46;;;;;;;4.97;4.47;;;16.00;99.90;;;;;;5075847;28;20884;-57
2022/05/22 05:54:13;;;;;;;4.90;4.33;;;16.10;99.90;;;;;;5075566;28;20487;-57
2022/05/22 05:56:41;;;;;;;4.90;3.67;;;16.20;99.90;;;;;;5075741;28;20445;-57
2022/05/22 05:59:09;;;;;;;6.67;3.40;;;16.20;99.90;;;;;;5075565;28;20468;-57
2022/05/22 06:01:36;;;;;;;3.83;3.23;;;16.30;99.90;;;;;;5075812;28;20476;-57
2022/05/22 06:04:04;;;;;;;3.80;3.10;;;16.30;99.90;;;;;;5075258;28;20476;-58
2022/05/22 06:06:32;;;;;;;6.70;3.50;;;16.30;99.90;;;;;;5075642;28;20523;-58
2022/05/22 06:09:00;;;;;;;3.67;3.37;;;16.30;99.90;;;;;;5075369;28;20468;-57
2022/05/22 06:11:27;;;;;;;3.33;3.03;;;16.40;99.90;;;;;;5075518;28;20499;-58
2022/05/22 06:13:56;;;;;;;2.83;2.57;;;16.60;99.90;;;;;;5075160;28;20479;-58
2022/05/22 06:16:24;;;;;;;3.63;3.30;;;16.80;99.90;;;;;;5074253;28;20539;-58
2022/05/22 06:18:51;;;;;;;3.70;3.40;;;16.80;99.90;;;;;;5075304;28;20504;-57
2022/05/22 06:21:21;;;;;;;3.87;3.47;;;16.90;99.90;;;;;;5075291;28;20541;-58
2022/05/22 06:23:49;;;;;;;6.60;3.30;;;16.80;99.90;;;;;;5075079;28;20466;-57
2022/05/22 06:26:19;;;;;;;4.37;2.80;;;17.00;99.90;;;;;;5075198;28;20986;-57
2022/05/22 06:28:47;;;;;;;4.33;2.60;;;17.10;99.90;;;;;;5074591;28;20475;-58
2022/05/22 06:31:15;;;;;;;7.87;3.10;;;17.20;99.90;;;;;;5074792;28;20487;-58
2022/05/22 06:33:43;;;;;;;4.43;3.00;;;17.20;99.90;;;;;;5074573;28;21074;-58
2022/05/22 06:36:12;;;;;;;3.40;3.10;;;17.30;99.90;;;;;;5075015;28;20444;-57
2022/05/22 06:41:26;;;;;;;3.20;2.90;;;17.40;99.90;;;;;;5074835;28;20412;-57
2022/05/22 06:43:53;;;;;;;4.07;2.70;;;17.50;99.90;;;;;;5074406;28;20440;-58
2022/05/22 06:46:30;;;;;;;4.77;3.10;;;17.70;99.90;;;;;;5074875;28;20480;-58
2022/05/22 06:48:57;;;;;;;3.53;2.80;;;17.70;99.90;;;;;;5074827;28;20467;-57
2022/05/22 06:51:24;;;;;;;3.00;2.80;;;17.70;99.90;;;;;;5074804;28;20440;-57
2022/05/22 06:53:51;;;;;;;4.30;2.73;;;17.80;99.90;;;;;;5074498;28;20555;-57
2022/05/22 06:56:19;;;;;;;6.60;2.87;;;17.80;99.90;;;;;;5074046;28;20456;-57
2022/05/22 06:58:47;;;;;;;3.17;2.97;;;18.00;99.90;;;;;;5074377;28;20468;-57
2022/05/22 07:01:16;;;;;;;3.70;2.97;;;18.10;99.90;;;;;;5074221;28;20444;-57
2022/05/22 07:03:43;;;;;;;2.93;2.70;;;18.10;99.90;;;;;;5074171;28;20506;-57
2022/05/22 07:06:10;;;;;;;3.80;2.23;;;18.20;99.90;;;;;;5074049;28;20452;-57
2022/05/22 07:08:37;;;;;;;3.90;3.60;;;18.30;99.90;;;;;;5074124;28;20474;-57
2022/05/22 07:13:50;;;;;;;4.00;3.70;;;18.40;99.90;;;;;;5073941;28;20491;-57
2022/05/22 07:16:18;;;;;;;4.20;3.70;;;18.50;99.90;;;;;;5074131;28;20548;-57
2022/05/22 07:18:45;;;;;;;3.33;3.03;;;18.90;99.90;;;;;;5074043;28;20471;-57
2022/05/22 07:21:12;;;;;;;9.63;3.13;;;19.50;99.90;;;;;;5073723;28;20455;-57
2022/05/22 07:23:40;;;;;;;4.57;3.23;;;20.00;99.90;;;;;;5073859;28;20444;-58
2022/05/22 07:26:07;;;;;;;2.73;2.53;;;20.40;99.90;;;;;;5073338;28;20473;-57
2022/05/22 07:28:34;;;;;;;3.30;3.00;;;21.30;99.90;;;;;;5073981;28;20494;-58
2022/05/22 07:31:03;;;;;;;4.07;3.00;;;21.60;99.90;;;;;;5073582;28;20947;-58
2022/05/22 07:33:30;;;;;;;3.17;2.83;;;22.60;99.50;;;;;;5073461;28;20990;-57
2022/05/22 07:35:59;;;;;;;4.90;3.10;;;23.10;98.90;;;;;;5074029;28;20444;-57
2022/05/22 07:38:27;;;;;;;3.70;3.00;;;23.20;97.90;;;;;;5073770;28;20551;-58
2022/05/22 07:40:54;;;;;;;3.20;2.90;;;23.30;97.90;;;;;;5073497;28;20456;-57
2022/05/22 07:43:22;;;;;;;3.40;3.07;;;23.40;97.80;;;;;;5073224;28;20472;-57
2022/05/22 07:45:49;;;;;;;3.07;2.50;;;23.60;96.80;;;;;;5073762;28;20448;-57
2022/05/22 07:48:18;;;;;;;5.13;2.83;;;24.10;96.00;;;;;;5073530;28;20483;-58
2022/05/22 07:50:45;;;;;;;4.20;2.80;;;24.30;95.20;;;;;;5073464;28;20940;-57
2022/05/22 07:53:13;;;;;;;2.90;2.60;;;24.10;93.80;;;;;;5073163;28;20895;-58
2022/05/22 07:55:40;;;;;;;3.83;2.77;;;24.10;94.90;;;;;;5072974;28;20460;-57
2022/05/22 07:58:08;;;;;;;2.20;1.87;;;24.60;93.50;;;;;;5073397;28;20453;-58
2022/05/22 08:00:35;;;;;;;3.17;2.40;;;24.30;93.50;;;;;;5073251;28;20444;-57
2022/05/22 08:03:08;;;;;;;4.73;2.60;;;24.80;92.60;;;;;;5073408;28;20452;-57
2022/05/22 08:05:37;;;;;;;4.33;2.87;;;25.10;92.70;;;;;;5073498;28;20428;-58
2022/05/22 08:08:05;;;;;;;2.90;2.60;;;25.10;92.60;;;;;;5073182;28;20504;-57
2022/05/22 08:10:32;;;;;;;6.13;2.70;;;25.30;91.70;;;;;;5073460;28;20814;-57
2022/05/22 08:12:59;;;;;;;3.77;2.83;;;25.60;91.30;;;;;;5073341;28;20528;-57
2022/05/22 08:15:30;;;;;;;5.60;3.23;;;25.60;89.70;;;;;;5072972;28;20609;-57
2022/05/22 08:17:57;;;;;;;2.57;2.37;;;25.30;87.30;;;;;;5073281;28;20436;-58
2022/05/22 08:20:26;;;;;;;4.40;2.80;;;25.00;89.60;;;;;;5073402;28;20444;-57
2022/05/22 08:22:56;;;;;;;2.90;2.20;;;25.70;89.30;;;;;;5072917;28;20451;-58
2022/05/22 08:25:26;;;;;;;3.20;2.40;;;26.40;88.40;;;;;;5072385;28;20452;-58
2022/05/22 08:27:53;;;;;;;3.70;2.60;;;26.50;87.60;;;;;;5073157;28;20455;-57
2022/05/22 08:30:21;;;;;;;2.90;2.47;;;26.60;83.10;;;;;;5072879;28;20527;-57
2022/05/22 08:32:50;;;;;;;2.60;2.40;;;26.40;84.50;;;;;;5072893;28;20945;-57
2022/05/22 08:35:20;;;;;;;3.30;2.33;;;26.50;84.20;;;;;;5073174;28;20484;-57
2022/05/22 08:37:47;;;;;;;3.57;2.23;;;26.10;81.50;;;;;;5073226;28;20958;-58
2022/05/22 08:40:18;;;;;;;2.73;2.07;;;26.10;86.00;;;;;;5076639;28;20470;-58
2022/05/22 08:42:48;;;;;;;2.70;2.40;;;26.80;82.80;;;;;;5076830;28;20486;-58
2022/05/22 08:45:20;;;;;;;3.63;2.47;;;26.50;80.70;;;;;;5076901;28;20440;-58
2022/05/22 08:47:57;;;;;;;3.10;2.10;;;26.10;81.60;;;;;;5076690;28;20991;-58
2022/05/22 08:50:25;;;;;;;3.40;3.13;;;26.70;82.30;;;;;;5076688;28;20442;-58
2022/05/22 08:52:58;;;;;;;2.40;2.20;;;27.00;82.70;;;;;;5076644;28;20955;-57
2022/05/22 09:01:04;;;;;;;7.13;3.13;;;27.00;78.50;;;;;;5076557;28;20412;-59
2022/05/22 09:03:36;;;;;;;2.90;2.17;;;26.40;77.30;;;;;;5076835;28;20516;-60
2022/05/22 09:06:07;;;;;;;2.80;2.17;;;27.70;79.70;;;;;;5076677;28;20515;-59
2022/05/22 09:08:40;;;;;;;5.70;2.80;;;28.30;77.00;;;;;;5076599;28;20460;-60
2022/05/22 09:11:17;;;;;;;6.80;2.57;;;28.30;74.50;;;;;;5076327;28;20842;-59
2022/05/22 09:13:51;;;;;;;3.77;2.37;;;27.70;73.70;;;;;;5076933;28;20424;-58
2022/05/22 09:16:27;;;;;;;3.73;2.70;;;28.20;72.20;;;;;;5076448;28;20460;-58
2022/05/22 09:19:03;;;;;;;3.10;2.53;;;28.00;70.70;;;;;;5076069;28;20470;-58
2022/05/22 09:21:32;;;;;;;3.70;2.40;;;27.80;73.50;;;;;;5075914;28;20464;-59
2022/05/22 09:24:02;;;;;;;3.47;2.20;;;27.80;71.50;;;;;;5076410;28;20526;-58
2022/05/22 09:26:41;;;;;;;3.10;2.37;;;28.00;73.00;;;;;;5075877;28;20942;-59
2022/05/22 09:29:23;;;;;;;3.50;2.17;;;28.60;69.90;;;;;;5076205;28;20472;-59
2022/05/22 09:31:59;;;;;;;2.50;2.20;;;27.70;68.80;;;;;;5075844;28;20472;-58
2022/05/22 09:34:37;;;;;;;2.73;2.53;;;28.00;70.50;;;;;;5075992;28;20862;-58
2022/05/22 09:37:16;;;;;;;5.07;3.40;;;28.80;69.80;;;;;;5075939;28;20520;-59
2022/05/22 09:39:57;;;;;;;3.87;2.17;;;28.80;67.70;;;;;;5076257;28;20486;-58
2022/05/22 09:42:41;;;;;;;2.90;2.50;;;29.30;68.70;;;;;;5076041;28;20476;-59
2022/05/22 09:45:23;;;;;;;2.93;2.50;;;29.40;68.70;;;;;;5076078;28;20428;-58
2022/05/22 09:48:19;;;;;;;2.53;2.23;;;29.40;64.80;;;;;;5076032;28;20507;-58
2022/05/22 09:50:55;;;;;;;2.20;2.10;;;28.20;68.10;;;;;;5074412;28;20451;-59
2022/05/22 09:53:34;;;;;;;2.13;1.90;;;28.70;69.30;;;;;;5075959;28;20464;-59
2022/05/22 09:56:09;;;;;;;2.93;2.73;;;28.80;66.10;;;;;;5075786;28;20488;-59
2022/05/22 09:59:17;;;;;;;3.83;2.50;;;28.80;65.50;;;;;;5075882;28;20504;-59
2022/05/22 10:01:46;;;;;;;2.40;2.20;;;29.40;67.50;;;;;;5050854;28;20501;-59
2022/05/22 10:04:27;;;;;;;4.47;2.37;;;29.60;63.10;;;;;;5075689;28;20445;-59
2022/05/22 10:07:00;;;;;;;2.50;2.30;;;30.00;66.60;;;;;;5075381;28;20503;-58
2022/05/22 10:09:39;;;;;;;2.33;2.13;;;30.00;62.50;;;;;;5075242;28;20469;-58
2022/05/22 10:12:21;;;;;;;3.90;2.40;;;30.20;63.60;;;;;;5075703;28;20451;-58
2022/05/22 10:15:00;;;;;;;6.10;2.10;;;30.40;60.90;;;;;;5074923;28;20500;-58
2022/05/22 10:17:41;;;;;;;2.30;2.10;;;30.00;59.20;;;;;;5075068;28;20436;-58
2022/05/22 10:20:19;;;;;;;2.80;2.43;;;28.40;59.90;;;;;;5075259;28;20475;-58
2022/05/22 10:22:57;;;;;;;2.50;2.03;;;28.10;64.00;;;;;;5075270;28;20442;-58
2022/05/22 10:25:35;;;;;;;2.87;2.10;;;29.70;61.90;;;;;;5074924;28;20903;-58
2022/05/22 10:28:05;;;;;;;2.93;2.40;;;29.10;61.30;;;;;;5075172;28;20432;-60
2022/05/22 10:30:40;;;;;;;3.40;2.10;;;29.50;60.60;;;;;;5074970;28;20516;-58
2022/05/22 10:33:15;;;;;;;8.37;2.40;;;29.80;59.90;;;;;;5075214;28;20427;-58
2022/05/22 10:35:47;;;;;;;4.03;2.10;;;30.20;62.00;;;;;;5074549;28;20854;-58
2022/05/22 10:38:18;;;;;;;3.03;2.20;;;31.10;59.30;;;;;;5074820;28;20955;-58
2022/05/22 10:43:35;;;;;;;3.13;2.20;;;29.20;59.90;;;;;;5073485;28;20463;-59
2022/05/22 10:46:04;;;;;;;2.23;2.03;;;30.00;58.70;;;;;;5074953;28;20519;-59
2022/05/22 10:48:33;;;;;;;4.40;2.43;;;29.60;58.80;;;;;;5074649;28;20498;-58
2022/05/22 10:51:05;;;;;;;2.40;2.20;;;30.00;60.50;;;;;;5075020;28;20456;-59
2022/05/22 10:53:35;;;;;;;2.20;2.00;;;30.40;59.00;;;;;;5074296;28;20520;-59
2022/05/22 10:56:06;;;;;;;2.73;2.20;;;30.70;57.50;;;;;;5074635;28;20537;-59
2022/05/22 10:58:40;;;;;;;3.20;2.20;;;29.70;57.50;;;;;;5074217;28;20464;-59
2022/05/22 11:01:19;;;;;;;4.87;2.10;;;30.50;58.20;;;;;;5073941;28;20413;-59
2022/05/22 11:03:47;;;;;;;3.00;2.20;;;31.10;58.20;;;;;;5074279;28;20413;-60
2022/05/22 11:06:19;;;;;;;2.73;2.37;;;31.00;57.30;;;;;;5074308;28;20509;-60
2022/05/22 11:08:49;;;;;;;2.73;2.50;;;30.60;57.00;;;;;;5074346;28;20970;-59
2022/05/22 11:11:19;;;;;;;2.63;2.20;;;30.80;57.00;;;;;;5073968;28;20524;-59
2022/05/22 11:13:47;;;;;;;2.80;1.93;;;31.20;57.30;;;;;;5074355;28;20796;-59
2022/05/22 11:16:18;;;;;;;2.37;2.17;;;31.20;55.70;;;;;;5074048;28;20476;-59
2022/05/22 11:18:46;;;;;;;4.73;2.90;;;30.90;56.70;;;;;;5073927;28;20986;-59
2022/05/22 11:21:24;;;;;;;3.23;2.73;;;30.60;56.40;;;;;;5074060;28;20532;-59
2022/05/22 11:24:13;;;;;;;3.30;2.23;;;30.50;57.20;;;;;;5073807;28;20428;-59
2022/05/22 11:26:51;;;;;;;2.77;2.53;;;30.50;57.70;;;;;;5073708;28;20467;-60
2022/05/22 11:29:32;;;;;;;2.10;1.90;;;30.00;56.70;;;;;;5073558;28;20555;-59
2022/05/22 11:32:12;;;;;;;3.80;2.43;;;29.80;57.90;;;;;;5074040;28;20531;-59
2022/05/22 11:35:08;;;;;;;2.67;2.17;;;30.10;57.30;;;;;;5073907;28;20468;-60
2022/05/22 11:37:42;;;;;;;2.47;2.27;;;;;;;;;;5070136;28;20456;-59
2022/05/22 11:40:23;;;;;;;3.10;2.47;;;29.70;57.50;;;;;;5073478;28;20483;-60
2022/05/22 11:42:59;;;;;;;4.77;2.20;;;29.80;56.60;;;;;;5073356;28;20487;-59
2022/05/22 11:45:37;;;;;;;2.50;2.27;;;29.90;56.30;;;;;;5073922;28;20432;-60
2022/05/22 11:48:31;;;;;;;3.80;2.20;;;30.30;56.50;;;;;;5073313;28;20459;-59
2022/05/22 11:51:05;;;;;;;3.00;2.30;;;29.20;56.60;;;;;;5073484;28;20462;-59
2022/05/22 11:53:49;;;;;;;5.00;2.93;;;29.20;57.10;;;;;;5073357;28;20907;-59
2022/05/22 11:56:32;;;;;;;2.60;2.00;;;29.20;56.30;;;;;;5073679;28;20487;-59
2022/05/22 11:59:11;;;;;;;2.60;2.30;;;28.70;56.70;;;;;;5073618;28;20492;-59
2022/05/22 12:01:46;;;;;;;4.07;2.20;;;28.60;56.20;;;;;;5073545;28;20853;-59
2022/05/22 12:04:42;;;;;;;3.73;2.33;;;29.20;57.70;;;;;;5073373;28;20519;-60
2022/05/22 12:07:26;;;;;;;8.30;2.40;;;29.10;57.00;;;;;;5073389;28;20439;-60
2022/05/22 12:10:00;;;;;;;3.60;2.23;;;29.40;56.70;;;;;;5073406;28;20551;-60
2022/05/22 12:12:36;;;;;;;2.83;2.20;;;29.30;56.00;;;;;;5073359;28;20452;-60
2022/05/22 12:15:20;;;;;;;5.90;2.90;;;29.70;56.20;;;;;;5073120;28;21040;-59
2022/05/22 12:17:55;;;;;;;3.70;2.40;;;29.70;56.60;;;;;;5073323;28;20425;-59
2022/05/22 12:20:29;;;;;;;2.30;2.10;;;29.40;56.90;;;;;;5073454;28;20458;-60
2022/05/22 12:23:10;;;;;;;3.10;2.47;;;29.10;57.10;;;;;;5073175;28;20439;-59
2022/05/22 12:25:44;;;;;;;3.10;2.30;;;29.80;57.10;;;;;;5073173;28;20447;-59
2022/05/22 12:28:31;;;;;;;2.63;2.17;;;30.30;56.30;;;;;;5072981;28;20515;-59
2022/05/22 12:31:01;;;;;;;2.70;2.43;;;30.30;54.80;;;;;;5073065;28;20420;-59
2022/05/22 12:33:31;;;;;;;2.90;2.30;;;30.40;54.20;;;;;;5072990;28;20947;-60
2022/05/22 12:36:00;;;;;;;4.37;2.47;;;30.00;55.60;;;;;;5073088;28;21034;-59
2022/05/22 12:38:28;;;;;;;2.90;2.60;;;30.10;55.50;;;;;;5073017;28;20464;-59
2022/05/22 12:41:06;;;;;;;2.67;2.30;;;29.30;55.30;;;;;;5073139;28;20875;-60
2022/05/22 12:43:34;;;;;;;5.37;2.00;;;29.30;56.00;;;;;;5072624;28;20555;-59
2022/05/22 12:46:04;;;;;;;2.30;2.10;;;29.10;56.50;;;;;;5073274;28;20527;-59
2022/05/22 12:48:39;;;;;;;3.00;2.30;;;29.10;56.40;;;;;;5072975;28;20473;-59
2022/05/22 12:51:18;;;;;;;3.23;2.70;;;29.40;55.70;;;;;;5072721;28;20428;-59
2022/05/22 12:53:47;;;;;;;3.57;2.20;;;29.80;55.10;;;;;;5073227;28;20432;-59
2022/05/22 12:56:38;;;;;;;3.00;2.10;;;29.70;56.10;;;;;;5072733;28;20502;-59
2022/05/22 12:59:18;;;;;;;3.40;2.03;;;29.60;56.10;;;;;;5072635;28;20456;-59
2022/05/22 13:01:46;;;;;;;2.33;1.87;;;29.30;54.70;;;;;;5072544;28;20790;-59
2022/05/22 13:04:32;;;;;;;2.17;1.97;;;29.40;56.60;;;;;;5072667;28;20440;-59
2022/05/22 13:07:03;;;;;;;5.33;2.20;;;29.20;53.80;;;;;;5072889;28;20485;-59
2022/05/22 13:09:40;;;;;;;3.90;2.57;;;29.40;55.60;;;;;;5072829;28;20460;-59
2022/05/22 13:12:24;;;;;;;2.50;2.30;;;29.30;55.20;;;;;;5072531;28;20483;-59
2022/05/22 13:14:55;;;;;;;2.47;2.20;;;28.90;55.10;;;;;;5072993;28;20477;-59
2022/05/22 13:17:37;;;;;;;6.63;2.50;;;28.80;55.60;;;;;;5072732;28;20425;-59
2022/05/22 13:20:09;;;;;;;3.03;2.30;;;28.60;55.60;;;;;;5072943;28;20456;-59
2022/05/22 13:22:40;;;;;;;3.60;2.37;;;28.60;55.40;;;;;;5073648;28;20421;-58
2022/05/22 13:25:25;;;;;;;2.17;1.97;;;28.90;55.30;;;;;;5074492;28;20539;-59